createdAt,value
2022-10-24T00:01:27.824Z,45.03
2022-10-24T00:03:55.447Z,47.42
2022-10-24T00:06:23.106Z,47.28
2022-10-24T00:08:51.235Z,52.45
2022-10-24T00:11:24.516Z,43.63
2022-10-24T00:13:53.550Z,37.38
2022-10-24T00:16:23.171Z,43.08
2022-10-24T00:18:51.184Z,46.03
2022-10-24T00:21:19.095Z,38.97
2022-10-24T00:23:47.071Z,32.80
2022-10-24T00:26:15.955Z,41.72
2022-10-24T00:28:44.121Z,44.97
2022-10-24T00:31:16.532Z,41.15
2022-10-24T00:33:45.339Z,44.05
2022-10-24T00:36:15.069Z,44.38
2022-10-24T00:38:42.865Z,41.47
2022-10-24T00:41:16.241Z,47.58
2022-10-24T00:43:43.874Z,52.33
2022-10-24T00:46:11.554Z,49.53
2022-10-24T00:48:45.299Z,48.78
2022-10-24T00:51:31.907Z,49.95
2022-10-24T00:54:05.565Z,49.55
2022-10-24T00:56:35.903Z,48.47
2022-10-24T00:59:06.292Z,48.58
2022-10-24T01:01:34.483Z,50.83
2022-10-24T01:04:02.344Z,49.92
2022-10-24T01:06:37.262Z,48.00
2022-10-24T01:09:42.610Z,45.53
2022-10-24T01:12:28.743Z,44.88
2022-10-24T01:15:23.177Z,46.20
2022-10-24T01:18:15.005Z,46.08
2022-10-24T01:20:45.658Z,47.80
2022-10-24T01:23:24.246Z,48.50
2022-10-24T01:26:23.704Z,49.72
2022-10-24T01:29:20.733Z,46.10
2022-10-24T01:31:55.001Z,44.28
2022-10-24T01:34:37.100Z,45.17
2022-10-24T01:37:08.663Z,43.33
2022-10-24T01:39:51.589Z,43.88
2022-10-24T01:42:22.626Z,44.42
2022-10-24T01:44:53.638Z,43.00
2022-10-24T01:47:27.918Z,41.88
2022-10-24T01:50:02.520Z,42.53
2022-10-24T01:52:34.085Z,43.75
2022-10-24T01:55:02.193Z,41.88
2022-10-24T01:57:31.959Z,43.63
2022-10-24T01:59:59.489Z,44.17
2022-10-24T02:02:36.399Z,44.65
2022-10-24T02:05:10.241Z,44.58
2022-10-24T02:07:40.665Z,41.45
2022-10-24T02:10:29.253Z,43.03
2022-10-24T02:13:02.923Z,41.47
2022-10-24T02:15:34.269Z,41.80
2022-10-24T02:18:02.066Z,44.78
2022-10-24T02:20:57.576Z,45.78
2022-10-24T02:23:38.564Z,44.92
2022-10-24T02:26:08.926Z,44.80
2022-10-24T02:28:40.868Z,46.38
2022-10-24T02:31:22.669Z,43.38
2022-10-24T02:33:52.165Z,44.33
2022-10-24T02:36:23.250Z,42.13
2022-10-24T02:38:52.539Z,42.45
2022-10-24T02:41:29.469Z,42.42
2022-10-24T02:43:57.938Z,41.35
2022-10-24T02:46:26.426Z,39.95
2022-10-24T02:48:57.609Z,42.90
2022-10-24T02:51:28.767Z,40.25
2022-10-24T02:53:57.808Z,39.53
2022-10-24T02:56:25.271Z,37.72
2022-10-24T02:58:52.913Z,37.67
2022-10-24T03:01:20.310Z,36.72
2022-10-24T03:03:48.155Z,39.03
2022-10-24T03:06:15.812Z,37.72
2022-10-24T03:08:43.252Z,37.60
2022-10-24T03:11:10.833Z,39.60
2022-10-24T03:13:38.443Z,40.47
2022-10-24T03:16:07.911Z,41.15
2022-10-24T03:18:38.234Z,41.83
2022-10-24T03:21:05.725Z,41.70
2022-10-24T03:23:33.469Z,40.45
2022-10-24T03:26:00.909Z,38.30
2022-10-24T03:28:28.624Z,39.30
2022-10-24T03:30:56.478Z,40.60
2022-10-24T03:33:24.149Z,40.67
2022-10-24T03:35:55.082Z,40.30
2022-10-24T03:38:23.445Z,40.08
2022-10-24T03:40:51.406Z,38.90
2022-10-24T03:43:19.382Z,39.83
2022-10-24T03:45:46.980Z,39.60
2022-10-24T03:48:14.700Z,38.15
2022-10-24T03:50:42.188Z,39.50
2022-10-24T03:53:09.924Z,41.83
2022-10-24T03:55:37.369Z,36.63
2022-10-24T03:58:05.226Z,38.13
2022-10-24T04:00:35.015Z,38.88
2022-10-24T04:03:03.093Z,39.50
2022-10-24T04:05:30.412Z,38.08
2022-10-24T04:07:58.092Z,38.22
2022-10-24T04:10:25.726Z,38.03
2022-10-24T04:12:53.518Z,37.60
2022-10-24T04:15:21.164Z,39.40
2022-10-24T04:17:48.953Z,37.30
2022-10-24T04:20:20.010Z,38.42
2022-10-24T04:22:47.972Z,40.08
2022-10-24T04:25:16.174Z,39.03
2022-10-24T04:27:44.086Z,39.33
2022-10-24T04:30:16.473Z,37.47
2022-10-24T04:32:45.411Z,39.17
2022-10-24T04:35:14.304Z,40.33
2022-10-24T04:37:42.115Z,40.13
2022-10-24T04:40:10.669Z,40.88
2022-10-24T04:42:38.279Z,40.67
2022-10-24T04:45:06.628Z,41.40
2022-10-24T04:47:34.481Z,40.72
2022-10-24T04:50:02.182Z,41.28
2022-10-24T04:52:30.335Z,42.15
2022-10-24T04:54:57.738Z,43.50
2022-10-24T04:57:25.473Z,39.30
2022-10-24T04:59:52.864Z,42.25
2022-10-24T05:02:20.655Z,38.58
2022-10-24T05:04:48.283Z,41.45
2022-10-24T05:07:15.961Z,38.80
2022-10-24T05:09:43.503Z,39.42
2022-10-24T05:12:11.164Z,39.88
2022-10-24T05:14:38.706Z,39.67
2022-10-24T05:17:06.849Z,39.42
2022-10-24T05:19:34.374Z,39.13
2022-10-24T05:22:03.240Z,36.45
2022-10-24T05:24:32.810Z,37.75
2022-10-24T05:27:00.719Z,36.75
2022-10-24T05:29:31.382Z,37.65
2022-10-24T05:31:59.297Z,36.00
2022-10-24T05:34:27.770Z,36.05
2022-10-24T05:36:55.449Z,36.58
2022-10-24T05:39:23.081Z,36.92
2022-10-24T05:41:54.479Z,37.78
2022-10-24T05:44:22.951Z,37.03
2022-10-24T05:46:50.815Z,37.58
2022-10-24T05:49:18.571Z,37.30
2022-10-24T05:51:46.889Z,36.53
2022-10-24T05:54:14.722Z,40.35
2022-10-24T05:56:42.501Z,39.03
2022-10-24T05:59:09.830Z,37.53
2022-10-24T06:01:37.514Z,37.00
2022-10-24T06:04:08.852Z,37.95
2022-10-24T06:06:43.322Z,38.10
2022-10-24T06:09:11.847Z,36.13
2022-10-24T06:11:39.859Z,36.15
2022-10-24T06:14:07.399Z,38.95
2022-10-24T06:16:35.654Z,39.40
2022-10-24T06:19:03.332Z,39.25
2022-10-24T06:21:31.038Z,38.55
2022-10-24T06:23:59.263Z,36.72
2022-10-24T06:26:26.925Z,36.13
2022-10-24T06:28:55.814Z,37.15
2022-10-24T06:31:23.515Z,35.67
2022-10-24T06:33:51.174Z,37.70
2022-10-24T06:36:19.234Z,38.42
2022-10-24T06:38:46.810Z,37.85
2022-10-24T06:41:17.180Z,38.72
2022-10-24T06:43:44.659Z,60.45
2022-10-24T06:46:15.986Z,61.38
2022-10-24T06:48:43.969Z,48.10
2022-10-24T06:51:15.355Z,42.35
2022-10-24T06:53:42.996Z,39.28
2022-10-24T06:56:10.565Z,35.88
2022-10-24T06:58:38.301Z,34.60
2022-10-24T07:01:17.050Z,33.80
2022-10-24T07:03:45.292Z,33.50
2022-10-24T07:06:27.187Z,34.50
2022-10-24T07:08:58.161Z,34.95
2022-10-24T07:11:26.531Z,35.55
2022-10-24T07:13:56.667Z,36.05
2022-10-24T07:16:27.816Z,34.28
2022-10-24T07:18:55.732Z,34.40
2022-10-24T07:21:25.974Z,34.13
2022-10-24T07:23:54.220Z,35.00
2022-10-24T07:26:23.822Z,32.53
2022-10-24T07:28:56.235Z,32.13
2022-10-24T07:31:26.629Z,33.40
2022-10-24T07:33:54.616Z,33.30
2022-10-24T07:36:24.551Z,33.75
2022-10-24T07:38:53.833Z,35.25
2022-10-24T07:41:22.071Z,35.35
2022-10-24T07:43:49.509Z,36.08
2022-10-24T07:46:18.936Z,37.70
2022-10-24T07:48:46.520Z,34.15
2022-10-24T07:51:14.650Z,36.28
2022-10-24T07:53:42.814Z,36.33
2022-10-24T07:56:13.642Z,37.28
2022-10-24T07:58:40.898Z,39.65
2022-10-24T08:01:17.271Z,38.28
2022-10-24T08:03:44.931Z,39.83
2022-10-24T08:06:15.905Z,38.65
2022-10-24T08:08:43.971Z,39.10
2022-10-24T08:11:16.951Z,38.88
2022-10-24T08:13:44.551Z,34.83
2022-10-24T08:16:14.081Z,36.47
2022-10-24T08:18:41.679Z,35.45
2022-10-24T08:21:12.080Z,38.13
2022-10-24T08:23:42.965Z,35.20
2022-10-24T08:26:13.934Z,35.15
2022-10-24T08:28:43.038Z,34.60
2022-10-24T08:31:16.619Z,32.97
2022-10-24T08:33:45.110Z,32.50
2022-10-24T08:36:36.197Z,34.38
2022-10-24T08:39:04.571Z,32.05
2022-10-24T08:41:40.896Z,32.80
2022-10-24T08:44:44.008Z,31.80
2022-10-24T08:50:28.483Z,31.95
2022-10-24T08:53:00.148Z,32.38
2022-10-24T08:55:55.419Z,33.22
2022-10-24T08:58:42.695Z,31.27
2022-10-24T09:01:30.532Z,32.35
2022-10-24T09:04:00.823Z,32.25
2022-10-24T09:06:30.722Z,30.42
2022-10-24T09:09:04.493Z,28.33
2022-10-24T09:11:50.878Z,26.30
2022-10-24T09:14:24.589Z,25.75
2022-10-24T09:16:59.968Z,23.70
2022-10-24T09:19:29.560Z,24.15
2022-10-24T09:21:59.682Z,23.67
2022-10-24T09:24:35.531Z,24.00
2022-10-24T09:27:05.356Z,22.80
2022-10-24T09:29:34.308Z,24.48
2022-10-24T09:32:02.544Z,24.00
2022-10-24T09:34:30.744Z,22.58
2022-10-24T09:36:58.245Z,20.50
2022-10-24T09:39:29.300Z,21.67
2022-10-24T09:41:58.119Z,20.63
2022-10-24T09:44:47.176Z,20.60
2022-10-24T09:47:29.319Z,18.85
2022-10-24T09:49:57.645Z,19.50
2022-10-24T09:52:26.935Z,18.88
2022-10-24T09:55:19.303Z,20.00
2022-10-24T09:57:47.599Z,18.48
2022-10-24T10:00:22.970Z,20.10
2022-10-24T10:03:24.224Z,18.33
2022-10-24T10:05:56.051Z,17.50
2022-10-24T10:08:32.880Z,18.80
2022-10-24T10:11:06.140Z,18.15
2022-10-24T10:13:49.836Z,17.90
2022-10-24T10:16:32.971Z,17.08
2022-10-24T10:21:54.488Z,16.98
2022-10-24T10:24:41.226Z,18.08
2022-10-24T10:27:46.651Z,17.73
2022-10-24T10:30:19.302Z,17.27
2022-10-24T10:32:58.789Z,16.75
2022-10-24T10:35:41.600Z,16.27
2022-10-24T10:38:38.020Z,16.92
2022-10-24T10:41:19.586Z,17.48
2022-10-24T10:44:05.071Z,16.83
2022-10-24T10:46:36.896Z,16.00
2022-10-24T10:49:25.130Z,16.77
2022-10-24T10:51:58.726Z,16.67
2022-10-24T10:55:00.109Z,16.70
2022-10-24T10:57:37.709Z,16.25
2022-10-24T11:00:24.690Z,17.67
2022-10-24T11:03:00.127Z,16.83
2022-10-24T11:05:40.444Z,15.52
2022-10-24T11:08:50.924Z,17.00
2022-10-24T11:11:23.386Z,17.42
2022-10-24T11:14:22.201Z,16.55
2022-10-24T11:16:51.242Z,17.30
2022-10-24T11:19:32.733Z,16.85
2022-10-24T11:22:04.319Z,17.20
2022-10-24T11:24:41.873Z,15.50
2022-10-24T11:27:41.063Z,16.30
2022-10-24T11:30:22.817Z,15.68
2022-10-24T11:32:55.374Z,15.40
2022-10-24T11:35:33.547Z,14.98
2022-10-24T11:38:13.336Z,16.65
2022-10-24T11:40:43.141Z,15.63
2022-10-24T11:43:23.111Z,15.25
2022-10-24T11:46:14.989Z,16.48
2022-10-24T11:48:59.447Z,15.88
2022-10-24T11:51:41.219Z,15.93
2022-10-24T11:54:19.700Z,16.15
2022-10-24T11:56:53.909Z,14.65
2022-10-24T11:59:26.364Z,16.40
2022-10-24T12:01:56.281Z,16.10
2022-10-24T12:05:02.496Z,15.00
2022-10-24T12:08:10.536Z,14.07
2022-10-24T12:11:00.473Z,11.95
2022-10-24T12:13:46.493Z,10.95
2022-10-24T12:16:49.440Z,11.23
2022-10-24T12:19:20.198Z,10.48
2022-10-24T12:21:53.113Z,9.90
2022-10-24T12:24:30.518Z,9.75
2022-10-24T12:27:03.010Z,8.82
2022-10-24T12:29:33.989Z,9.38
2022-10-24T12:32:39.979Z,8.57
2022-10-24T12:35:30.501Z,7.70
2022-10-24T12:37:59.933Z,9.68
2022-10-24T12:40:46.275Z,9.38
2022-10-24T12:43:47.684Z,8.95
2022-10-24T12:46:21.776Z,8.85
2022-10-24T12:48:57.598Z,9.55
2022-10-24T12:51:33.117Z,9.25
2022-10-24T12:54:13.707Z,8.32
2022-10-24T12:56:53.589Z,9.90
2022-10-24T12:59:34.529Z,8.20
2022-10-24T13:02:24.915Z,8.65
2022-10-24T13:05:18.580Z,7.88
2022-10-24T13:07:53.027Z,8.02
2022-10-24T13:10:45.087Z,8.48
2022-10-24T13:13:32.711Z,10.50
2022-10-24T13:16:26.291Z,9.20
2022-10-24T13:19:22.290Z,9.35
2022-10-24T13:21:55.045Z,8.82
2022-10-24T13:24:29.195Z,8.48
2022-10-24T13:26:57.634Z,9.05
2022-10-24T13:29:28.515Z,8.38
2022-10-24T13:32:08.949Z,8.90
2022-10-24T13:34:55.564Z,8.18
2022-10-24T13:37:26.290Z,8.63
2022-10-24T13:40:15.632Z,8.02
2022-10-24T13:42:54.811Z,8.05
2022-10-24T13:45:42.044Z,8.55
2022-10-24T13:48:28.246Z,7.95
2022-10-24T13:51:38.438Z,8.35
2022-10-24T13:54:15.848Z,8.60
2022-10-24T13:56:45.532Z,7.78
2022-10-24T13:59:39.817Z,7.50
2022-10-24T14:02:18.470Z,7.93
2022-10-24T14:04:47.965Z,7.57
2022-10-24T14:07:22.721Z,8.05
2022-10-24T14:09:57.291Z,8.45
2022-10-24T14:12:27.970Z,8.02
2022-10-24T14:14:57.452Z,8.48
2022-10-24T14:17:31.914Z,8.20
2022-10-24T14:20:18.448Z,8.18
2022-10-24T14:22:46.911Z,7.97
2022-10-24T14:25:35.673Z,9.07
2022-10-24T14:28:16.205Z,8.25
2022-10-24T14:31:27.309Z,8.73
2022-10-24T14:33:56.532Z,8.40
2022-10-24T14:36:29.336Z,8.32
2022-10-24T14:38:59.501Z,8.40
2022-10-24T14:41:30.580Z,8.23
2022-10-24T14:43:59.823Z,9.15
2022-10-24T14:46:34.299Z,9.82
2022-10-24T14:49:30.727Z,9.40
2022-10-24T14:52:02.773Z,8.95
2022-10-24T14:54:32.929Z,8.80
2022-10-24T14:57:03.639Z,9.82
2022-10-24T14:59:36.502Z,8.77
2022-10-24T15:02:28.387Z,9.25
2022-10-24T15:05:14.919Z,9.02
2022-10-24T15:07:57.197Z,10.18
2022-10-24T15:10:44.620Z,10.93
2022-10-24T15:13:21.887Z,10.13
2022-10-24T15:15:58.804Z,10.43
2022-10-24T15:18:27.121Z,11.30
2022-10-24T15:21:11.703Z,10.23
2022-10-24T15:23:56.240Z,11.13
2022-10-24T15:26:44.849Z,13.80
2022-10-24T15:29:13.214Z,13.15
2022-10-24T15:31:45.129Z,12.00
2022-10-24T15:34:22.691Z,13.55
2022-10-24T15:36:52.371Z,14.00
2022-10-24T15:39:26.481Z,17.67
2022-10-24T15:41:55.595Z,18.35
2022-10-24T15:44:28.153Z,17.67
2022-10-24T15:46:56.870Z,18.83
2022-10-24T15:49:25.138Z,20.45
2022-10-24T15:51:52.916Z,20.35
2022-10-24T15:54:22.514Z,17.23
2022-10-24T15:56:52.225Z,16.08
2022-10-24T15:59:20.925Z,15.98
2022-10-24T16:01:54.807Z,15.02
2022-10-24T16:04:23.878Z,14.95
2022-10-24T16:06:52.410Z,13.98
2022-10-24T16:09:25.229Z,15.38
2022-10-24T16:11:53.451Z,15.48
2022-10-24T16:14:25.865Z,14.48
2022-10-24T16:16:55.456Z,12.77
2022-10-24T16:19:26.930Z,13.38
2022-10-24T16:21:58.918Z,12.27
2022-10-24T16:24:28.489Z,12.30
2022-10-24T16:26:57.149Z,11.68
2022-10-24T16:29:25.749Z,11.40
2022-10-24T16:31:53.678Z,12.80
2022-10-24T16:34:22.142Z,11.48
2022-10-24T16:36:53.956Z,11.18
2022-10-24T16:39:22.148Z,11.60
2022-10-24T16:41:54.203Z,13.20
2022-10-24T16:44:22.871Z,13.10
2022-10-24T16:46:53.712Z,13.77
2022-10-24T16:49:22.023Z,13.02
2022-10-24T16:51:50.079Z,12.30
2022-10-24T16:54:19.822Z,16.45
2022-10-24T16:56:53.648Z,15.30
2022-10-24T16:59:22.279Z,12.82
2022-10-24T17:01:51.155Z,13.63
2022-10-24T17:04:19.713Z,13.38
2022-10-24T17:06:47.740Z,13.25
2022-10-24T17:09:16.078Z,11.63
2022-10-24T17:11:45.793Z,11.98
2022-10-24T17:14:14.951Z,12.77
2022-10-24T17:16:44.281Z,11.95
2022-10-24T17:19:16.234Z,12.38
2022-10-24T17:21:47.533Z,12.27
2022-10-24T17:24:19.171Z,12.45
2022-10-24T17:26:48.052Z,12.00
2022-10-24T17:29:27.432Z,13.52
2022-10-24T17:31:55.353Z,16.35
2022-10-24T17:34:24.048Z,14.30
2022-10-24T17:37:08.413Z,14.05
2022-10-24T17:39:45.847Z,15.65
2022-10-24T17:42:13.869Z,15.98
2022-10-24T17:44:43.278Z,15.18
2022-10-24T17:47:12.519Z,14.98
2022-10-24T17:49:41.257Z,18.17
2022-10-24T17:52:12.295Z,20.42
2022-10-24T17:54:44.905Z,20.17
2022-10-24T17:57:14.281Z,19.48
2022-10-24T17:59:42.616Z,16.77
2022-10-24T18:02:14.571Z,17.30
2022-10-24T18:04:44.873Z,17.23
2022-10-24T18:07:13.115Z,19.48
2022-10-24T18:09:41.512Z,19.63
2022-10-24T18:12:10.493Z,20.45
2022-10-24T18:14:38.822Z,18.35
2022-10-24T18:17:06.938Z,18.65
2022-10-24T18:19:35.616Z,19.88
2022-10-24T18:22:04.911Z,20.10
2022-10-24T18:24:33.799Z,20.00
2022-10-24T18:27:01.939Z,21.10
2022-10-24T18:29:30.482Z,26.10
2022-10-24T18:31:58.509Z,22.17
2022-10-24T18:34:26.797Z,22.52
2022-10-24T18:36:54.584Z,29.25
2022-10-24T18:39:26.292Z,26.25
2022-10-24T18:42:00.915Z,26.35
2022-10-24T18:44:32.262Z,26.88
2022-10-24T18:47:03.161Z,24.77
2022-10-24T18:49:33.757Z,23.55
2022-10-24T18:52:11.882Z,26.55
2022-10-24T18:55:13.473Z,25.92
2022-10-24T18:57:41.582Z,23.23
2022-10-24T19:00:13.899Z,24.35
2022-10-24T19:02:54.555Z,24.80
2022-10-24T19:05:25.938Z,22.92
2022-10-24T19:07:54.742Z,24.80
2022-10-24T19:10:26.363Z,23.85
2022-10-24T19:12:55.933Z,26.00
2022-10-24T19:15:25.799Z,25.25
2022-10-24T19:17:54.165Z,25.33
2022-10-24T19:20:24.514Z,23.33
2022-10-24T19:22:52.882Z,25.33
2022-10-24T19:25:21.101Z,25.10
2022-10-24T19:27:50.012Z,25.05
2022-10-24T19:30:18.936Z,25.35
2022-10-24T19:32:47.269Z,23.33
2022-10-24T19:35:17.847Z,24.60
2022-10-24T19:37:46.075Z,24.90
2022-10-24T19:40:14.837Z,27.10
2022-10-24T19:42:42.728Z,26.48
2022-10-24T19:45:11.221Z,25.00
2022-10-24T19:47:38.971Z,26.83
2022-10-24T19:50:08.079Z,22.65
2022-10-24T19:52:36.415Z,23.65
2022-10-24T19:55:05.357Z,22.25
2022-10-24T19:57:33.603Z,21.20
2022-10-24T20:00:02.399Z,21.52
2022-10-24T20:02:39.281Z,21.00
2022-10-24T20:05:08.552Z,22.60
2022-10-24T20:07:36.357Z,20.25
2022-10-24T20:10:05.146Z,21.38
2022-10-24T20:12:33.463Z,21.42
2022-10-24T20:15:01.403Z,22.27
2022-10-24T20:17:30.012Z,23.23
2022-10-24T20:19:58.537Z,25.00
2022-10-24T20:22:26.405Z,25.55
2022-10-24T20:24:54.987Z,25.88
2022-10-24T20:27:26.801Z,27.30
2022-10-24T20:29:55.641Z,26.55
2022-10-24T20:32:23.826Z,28.52
2022-10-24T20:34:52.191Z,28.08
2022-10-24T20:37:20.469Z,30.08
2022-10-24T20:39:49.481Z,31.80
2022-10-24T20:42:18.181Z,31.92
2022-10-24T20:44:46.749Z,33.80
2022-10-24T20:47:15.282Z,32.05
2022-10-24T20:49:43.522Z,32.53
2022-10-24T20:54:41.760Z,29.88
2022-10-24T20:57:10.393Z,27.85
2022-10-24T20:59:40.530Z,28.33
2022-10-24T21:02:10.826Z,26.15
2022-10-24T21:04:39.578Z,26.25
2022-10-24T21:07:07.349Z,26.58
2022-10-24T21:09:35.795Z,25.02
2022-10-24T21:12:04.419Z,24.20
2022-10-24T21:14:32.531Z,22.60
2022-10-24T21:17:01.064Z,23.50
2022-10-24T21:19:30.888Z,22.13
2022-10-24T21:21:59.205Z,21.25
2022-10-24T21:24:27.279Z,21.05
2022-10-24T21:26:55.661Z,20.00
2022-10-24T21:29:39.115Z,19.33
2022-10-24T21:32:07.563Z,18.83
2022-10-24T21:34:35.785Z,18.95
2022-10-24T21:37:04.653Z,20.45
2022-10-24T21:39:33.297Z,19.35
2022-10-24T21:42:01.666Z,18.88
2022-10-24T21:44:30.202Z,18.52
2022-10-24T21:46:58.312Z,18.40
2022-10-24T21:49:26.348Z,18.70
2022-10-24T21:51:54.272Z,18.48
2022-10-24T21:54:24.208Z,17.10
2022-10-24T21:56:52.221Z,18.58
2022-10-24T21:59:21.493Z,18.15
2022-10-24T22:01:51.926Z,19.50
2022-10-24T22:04:21.713Z,19.48
2022-10-24T22:06:49.757Z,19.85
2022-10-24T22:09:20.620Z,19.08
2022-10-24T22:11:48.798Z,19.05
2022-10-24T22:14:18.238Z,20.15
2022-10-24T22:16:46.204Z,21.13
2022-10-24T22:19:14.913Z,19.38
2022-10-24T22:21:44.983Z,19.33
2022-10-24T22:24:17.323Z,18.17
2022-10-24T22:26:46.205Z,18.85
2022-10-24T22:29:17.524Z,18.45
2022-10-24T22:31:46.299Z,17.98
2022-10-24T22:34:20.368Z,18.50
2022-10-24T22:37:07.254Z,19.05
2022-10-24T22:39:35.957Z,20.15
2022-10-24T22:42:07.129Z,20.33
2022-10-24T22:44:35.547Z,20.80
2022-10-24T22:47:09.220Z,19.77
2022-10-24T22:49:47.509Z,20.60
2022-10-24T22:52:15.521Z,19.98
2022-10-24T22:54:43.966Z,19.45
2022-10-24T22:57:12.119Z,19.08
2022-10-24T22:59:40.428Z,20.20
2022-10-24T23:02:33.948Z,18.88
2022-10-24T23:05:34.793Z,18.50
2022-10-24T23:08:12.634Z,18.63
2022-10-24T23:10:41.119Z,19.75
2022-10-24T23:13:09.896Z,19.75
2022-10-24T23:15:38.703Z,18.65
2022-10-24T23:18:09.111Z,18.75
2022-10-24T23:20:43.829Z,20.10
2022-10-24T23:23:28.147Z,18.98
2022-10-24T23:26:04.765Z,18.38
2022-10-24T23:28:51.373Z,18.48
2022-10-24T23:31:20.120Z,20.08
2022-10-24T23:33:48.668Z,19.88
2022-10-24T23:36:25.054Z,21.55
2022-10-24T23:38:56.306Z,21.45
2022-10-24T23:41:24.820Z,22.38
2022-10-24T23:43:53.199Z,19.33
2022-10-24T23:46:49.868Z,19.83
2022-10-24T23:49:38.288Z,21.38
2022-10-24T23:52:26.912Z,19.52
2022-10-24T23:54:56.141Z,21.20
2022-10-24T23:57:24.850Z,21.45
2022-10-24T23:59:52.960Z,23.58
